Victory Mills, New York
Current Conditions -  °F | °C
As of 11:53 PM on Wednesday 22 Oct 2014 (Local Time) from KGFL Reporting Station
Overcast Overcast  
Wind Chill: 52°   Ceiling: 3100
Heat Index: 52°   Visibility: 10mi
Dew Point: 42°   Wind: 14mph
Humidity: 69%   Direction: 10°N
Pressure: 29.96"   Gusts: 22mph
Location:  43.09°N, 73.59°W
Report Text: KGFL 230353Z AUTO 01012G19KT 10SM OVC031 11/06 A2996 RMK AO2 RAB12E20B37E53 SLP148 P0000 T01110056
Loading
Personal Weather Stations






























Interactive Weather Map
Tropical Storm Tracking
New forecast layout! Learn more

10-Day Weather Forecast

Advertisements
Track Severe Weather on mobile